Terminal Aerodrome Forecast
Issued by NWS

Home | Current Version | Previous Version | Text Only | Print | Product List | Glossary On
Versions: 1 2 3 4 5 6 7 8 9 10 11 12 13 14
000
FTUS43 KOAX 011720
TAFSNY
TAF
KSNY 011720Z 0118/0218 33008KT P6SM FEW120
     FM012000 01009KT P6SM SCT100
     FM020200 06008KT P6SM VCTS BKN080CB
     FM020300 VRB15G30KT 3SM TSRA SCT020 BKN050CB
     FM020700 01008KT 3SM -SHRA BR BKN007 OVC020
     FM021700 05008KT P6SM SCT007 OVC050=

USA.gov is the U.S. government's official web portal to all federal, state and local government web resources and services.